Flight Track Log - Related Links

Times and Time Zones

All times are in EDT time to prevent confusion due to time zone crossing. See the UAL3756 flight status page for this flight to view local times or setup timezone preferences in your user account.

Time Position Orientation Groundspeed Altitude Reporting Facility
EDT Latitude Longitude Course Direction KTS MPH feet Rate Location/Type
Mon 11:50:23 AM 25.7983 -80.2653 80° East 156 180 900  Level Miami Center
Mon 11:51:12 AM 25.8056 -80.2217 80° East 215 247 1,800 1,558 Climbing Miami Center
Mon 11:52:07 AM 25.8178 -80.1503 79° East 274 315 3,600 2,216 Climbing Miami Center
Mon 11:53:03 AM 25.8744 -80.1358 13° North 275 316 5,900 2,638 Climbing Miami Center
Mon 11:54:03 AM 25.9231 -80.1994 310° West 272 313 8,700 2,600 Climbing Miami Center
Mon 11:55:03 AM 25.9631 -80.2744 301° West 278 320 11,100 1,750 Climbing Miami Center
Mon 11:56:03 AM 26.0072 -80.3592 300° West 302 348 12,200 1,600 Climbing Miami Center
Mon 11:57:03 AM 26.0572 -80.4506 301° West 318 366 14,300 2,550 Climbing Miami Center
Mon 11:58:03 AM 26.1111 -80.5494 301° West 339 390 17,300 2,050 Climbing Miami Center
Mon 11:59:03 AM 26.1975 -80.5983 333° Northwest 330 380 18,400 1,150 Climbing Miami Center
Mon 12:00:03 PM 26.2775 -80.6542 328° Northwest 355 409 19,600 1,250 Climbing Miami Center
Mon 12:01:03 PM 26.3781 -80.7222 329° Northwest 381 438 20,900 1,150 Climbing Miami Center
Mon 12:02:03 PM 26.4722 -80.7903 327° Northwest 395 455 21,900 1,050 Climbing Miami Center
Mon 12:03:03 PM 26.5708 -80.8586 328° Northwest 407 468 23,000 1,050 Climbing Miami Center
Mon 12:04:03 PM 26.6631 -80.9200 329° Northwest 421 484 24,000 1,000 Climbing Miami Center
Mon 12:05:03 PM 26.7633 -80.9933 327° Northwest 428 493 25,000 1,000 Climbing Miami Center
Mon 12:06:03 PM 26.8758 -81.0764 327° Northwest 428 493 26,000 1,050 Climbing Miami Center
Mon 12:07:03 PM 26.9803 -81.1453 330° Northwest 428 493 27,100 1,100 Climbing Miami Center
Mon 12:08:03 PM 27.0822 -81.2192 327° Northwest 433 498 28,200 1,050 Climbing Miami Center
Mon 12:09:03 PM 27.1867 -81.2883 330° Northwest 433 498 29,200 1,000 Climbing Miami Center
Mon 12:10:03 PM 27.2889 -81.3625 327° Northwest 433 498 30,200 950 Climbing Miami Center
Mon 12:11:03 PM 27.3928 -81.4367 328° Northwest 433 498 31,100 850 Climbing Miami Center
Mon 12:12:03 PM 27.4950 -81.5086 328° Northwest 433 498 31,900 800 Climbing Miami Center
Mon 12:13:03 PM 27.5969 -81.5806 328° Northwest 433 498 32,700 850 Climbing Miami Center
Mon 12:14:03 PM 27.6886 -81.6478 327° Northwest 433 498 33,600 650 Climbing Miami Center
Mon 12:15:03 PM 27.8028 -81.7300 328° Northwest 428 493 34,000 114 Climbing Miami Center
Mon 12:17:33 PM 28.0669 -81.9189 328° Northwest 445 512 34,000  Level Jacksonville Center
Mon 12:18:33 PM 28.1719 -81.9956 327° Northwest 445 512 34,000 300 Level Jacksonville Center
Mon 12:19:33 PM 28.2828 -82.0581 334° Northwest 450 518 34,600 650 Climbing Jacksonville Center
Mon 12:20:33 PM 28.4000 -82.1067 340° North 450 518 35,300 700 Climbing Jacksonville Center
Mon 12:21:33 PM 28.5172 -82.1578 339° North 445 512 36,000 700 Climbing Jacksonville Center
Mon 12:22:33 PM 28.6322 -82.2042 341° North 445 512 36,700 700 Climbing Jacksonville Center
Mon 12:23:33 PM 28.7453 -82.2533 339° North 440 506 37,400 650 Climbing Jacksonville Center
Mon 12:24:33 PM 28.8581 -82.2975 341° North 433 498 38,000 303 Climbing Jacksonville Center
Mon 12:25:32 PM 28.9669 -82.3444 339° North 427 491 38,000  Level Jacksonville Center
Mon 12:26:33 PM 29.0819 -82.3936 340° North 427 491 38,000  Level Jacksonville Center
Mon 12:27:32 PM 29.1989 -82.4453 339° North 438 504 38,000  Level Jacksonville Center
Mon 12:28:33 PM 29.3139 -82.4950 339° North 438 504 38,000  Level Jacksonville Center
Mon 12:29:33 PM 29.4289 -82.5419 340° North 438 504 38,000  Level Jacksonville Center
Mon 12:30:33 PM 29.5356 -82.5894 339° North 444 511 38,000  Level Jacksonville Center
Mon 12:31:33 PM 29.6503 -82.6369 340° North 444 511 38,000  Level Jacksonville Center
Mon 12:32:33 PM 29.7675 -82.6917 338° Northwest 449 517 38,000  Level Jacksonville Center
Mon 12:33:33 PM 29.8864 -82.7442 339° North 449 517 38,000  Level Jacksonville Center
Mon 12:34:33 PM 30.0014 -82.7942 339° North 449 517 38,000  Level Jacksonville Center
Mon 12:35:32 PM 30.1183 -82.8397 341° North 449 517 38,000  Level Jacksonville Center
Mon 12:36:33 PM 30.2353 -82.8903 340° North 449 517 38,000  Level Jacksonville Center
Mon 12:37:33 PM 30.3500 -82.9408 339° North 449 517 38,000  Level Jacksonville Center
Mon 12:38:33 PM 30.4669 -82.9914 340° North 449 517 38,000  Level Jacksonville Center
Mon 12:39:33 PM 30.5839 -83.0447 339° North 449 517 38,000  Level Jacksonville Center
Mon 12:40:33 PM 30.7006 -83.0931 340° North 449 517 38,000  Level Jacksonville Center
Mon 12:41:33 PM 30.8153 -83.1467 338° Northwest 449 517 38,000  Level Jacksonville Center
Mon 12:42:33 PM 30.9406 -83.2050 338° Northwest 444 511 38,000  Level Jacksonville Center
Mon 12:43:33 PM 31.0572 -83.2564 339° North 444 511 38,000  Level Jacksonville Center
Mon 12:44:32 PM 31.1719 -83.3078 339° North 444 511 38,000  Level Jacksonville Center
Mon 12:45:33 PM 31.2908 -83.3594 340° North 449 517 38,000  Level Jacksonville Center
Mon 12:46:33 PM 31.4075 -83.4136 338° Northwest 449 517 38,000  Level Jacksonville Center
Mon 12:48:53 PM 31.6831 -83.5336 340° North 449 517 38,000  Level Atlanta Center
Mon 12:49:53 PM 31.8022 -83.5867 339° North 449 517 38,000  Level Atlanta Center
Mon 12:50:53 PM 31.9233 -83.6425 339° North 454 522 38,000  Level Atlanta Center
Mon 12:51:53 PM 32.0425 -83.6983 338° Northwest 454 522 38,000  Level Atlanta Center
Mon 12:52:53 PM 32.1617 -83.7542 338° Northwest 454 522 38,000  Level Atlanta Center
Mon 12:53:53 PM 32.2808 -83.8103 338° Northwest 454 522 38,000  Level Atlanta Center
Mon 12:54:53 PM 32.4019 -83.8642 339° North 454 522 38,000  Level Atlanta Center
Mon 12:55:53 PM 32.5231 -83.9206 339° North 454 522 38,000  Level Atlanta Center
Mon 12:56:53 PM 32.6419 -83.9772 338° Northwest 454 522 38,000  Level Atlanta Center
Mon 12:57:53 PM 32.7631 -84.0314 339° North 454 522 38,000  Level Atlanta Center
Mon 12:58:53 PM 32.8842 -84.0833 340° North 454 522 38,000  Level Atlanta Center
Mon 12:59:53 PM 33.0031 -84.1428 337° Northwest 454 522 38,000  Level Atlanta Center
Mon 01:00:53 PM 33.1117 -84.1950 338° Northwest 454 522 38,000  Level Atlanta Center
Mon 01:01:53 PM 33.2306 -84.2500 339° North 459 528 38,000  Level Atlanta Center
Mon 01:02:53 PM 33.3536 -84.3075 339° North 459 528 38,000  Level Atlanta Center
Mon 01:03:53 PM 33.4725 -84.3625 339° North 459 528 38,000  Level Atlanta Center
Mon 01:04:53 PM 33.6036 -84.4228 339° North 459 528 38,000  Level Atlanta Center
Mon 01:05:53 PM 33.7456 -84.4536 350° North 482 555 38,000  Level Atlanta Center
Mon 01:06:53 PM 33.8686 -84.4667 355° North 469 540 38,000  Level Atlanta Center
Mon 01:07:53 PM 34.0022 -84.4822 354° North 469 540 38,000  Level Atlanta Center
Mon 01:08:53 PM 34.1314 -84.4981 354° North 479 551 38,000  Level Atlanta Center
Mon 01:09:53 PM 34.2650 -84.5114 355° North 498 573 38,000  Level Atlanta Center
Mon 01:10:53 PM 34.3964 -84.5272 354° North 488 562 38,000  Level Atlanta Center
Mon 01:11:53 PM 34.5361 -84.5431 355° North 488 562 38,000  Level Atlanta Center
Mon 01:12:53 PM 34.6781 -84.5642 353° North 482 555 38,000  Level Atlanta Center
Mon 01:13:53 PM 34.8136 -84.5803 354° North 477 549 38,000  Level Atlanta Center
Mon 01:14:53 PM 34.9514 -84.5989 354° North 482 555 38,000  Level Atlanta Center
Mon 01:15:53 PM 35.0869 -84.6150 354° North 487 560 38,000  Level Atlanta Center
Mon 01:16:53 PM 35.2225 -84.6311 354° North 487 560 38,000  Level Atlanta Center
Mon 01:17:53 PM 35.3600 -84.6475 354° North 487 560 38,000  Level Atlanta Center
Mon 01:18:53 PM 35.4933 -84.6636 354° North 482 555 38,000  Level Atlanta Center
Mon 01:19:53 PM 35.6289 -84.6800 354° North 482 555 38,000  Level Atlanta Center
Mon 01:20:53 PM 35.7644 -84.6964 354° North 482 555 38,000  Level Atlanta Center
Mon 01:21:53 PM 35.9022 -84.7103 355° North 482 555 38,000  Level Atlanta Center
Mon 01:22:53 PM 36.0375 -84.7294 353° North 482 555 38,000  Level Atlanta Center
Mon 01:24:00 PM 36.1878 -84.7497 354° North 485 558 38,000  Level Indianapolis Center
Mon 01:25:02 PM 36.3214 -84.7672 354° North 483 556 38,000  Level Indianapolis Center
Mon 01:26:04 PM 36.4556 -84.7692 359° North 486 559 38,000  Level Indianapolis Center
Mon 01:27:06 PM 36.5894 -84.7292 13° North 494 568 38,000  Level Indianapolis Center
Mon 01:28:08 PM 36.7247 -84.6900 13° North 497 572 38,000  Level Indianapolis Center
Mon 01:29:10 PM 36.8594 -84.6508 13° North 497 572 38,000  Level Indianapolis Center
Mon 01:30:11 PM 37.0203 -84.6022 14° North 496 571 38,000  Level Indianapolis Center
Mon 01:31:13 PM 37.1514 -84.5633 13° North 498 573 38,000  Level Indianapolis Center
Mon 01:32:15 PM 37.2872 -84.5236 13° North 500 575 38,000  Level Indianapolis Center
Mon 01:33:17 PM 37.4200 -84.4850 13° North 493 567 38,000  Level Indianapolis Center
Mon 01:34:19 PM 37.5558 -84.4586 North 494 568 38,000  Level Indianapolis Center
Mon 01:35:21 PM 37.6839 -84.4961 347° North 472 543 38,000  Level Indianapolis Center
Mon 01:36:23 PM 37.8272 -84.5547 342° North 463 533 38,000  Level Indianapolis Center
Mon 01:37:25 PM 37.9506 -84.6050 342° North 462 532 38,000 -290 Level Indianapolis Center
Mon 01:38:27 PM 38.0733 -84.6550 342° North 464 534 37,400 -780 Descending Indianapolis Center
Mon 01:39:28 PM 38.2036 -84.7042 343° North 482 555 36,400 -683 Descending Indianapolis Center
Mon 01:40:30 PM 38.3303 -84.7581 342° North 479 551 36,000 -194 Descending Indianapolis Center
Mon 01:41:32 PM 38.4578 -84.8111 342° North 478 550 36,000  Level Indianapolis Center
Mon 01:42:34 PM 38.6058 -84.8731 342° North 478 550 36,000 -98 Level Indianapolis Center
Mon 01:43:35 PM 38.7194 -84.9183 343° North 478 550 35,800 -634 Descending Indianapolis Center
Mon 01:44:37 PM 38.8475 -84.9725 342° North 481 554 34,700 -871 Descending Indianapolis Center
Mon 01:45:39 PM 38.9736 -85.0264 342° North 477 549 34,000 -341 Descending Indianapolis Center
Mon 01:46:40 PM 39.1217 -85.0881 342° North 468 539 34,000 -390 Level Indianapolis Center
Mon 01:47:42 PM 39.2467 -85.1408 342° North 470 541 33,200 -1,500 Descending Indianapolis Center
Mon 01:48:44 PM 39.3728 -85.1933 342° North 470 541 30,900 -2,177 Descending Indianapolis Center
Mon 01:49:46 PM 39.4950 -85.2464 341° North 460 529 28,700 -941 Descending Indianapolis Center
Mon 01:51:00 PM 39.6369 -85.3016 341° North  Level FlightAware Approximate
Mon 01:51:49 PM 39.7392 -85.3511 341° North 461 531 28,000  Level Indianapolis Center
Mon 01:52:50 PM 39.8625 -85.4039 342° North 462 532 27,800 -488 Descending Indianapolis Center
Mon 01:53:52 PM 39.9808 -85.4547 342° North 448 516 27,000 -774 Descending Indianapolis Center
Mon 01:54:54 PM 40.1014 -85.5072 342° North 449 517 26,200 -537 Descending Indianapolis Center
Mon 01:55:55 PM 40.2211 -85.5589 342° North 450 518 25,900 -634 Descending Indianapolis Center
Mon 01:56:57 PM 40.3422 -85.6122 341° North 452 520 24,900 -919 Descending Indianapolis Center
Mon 01:57:59 PM 40.4819 -85.6739 341° North 449 517 24,000 -857 Descending Indianapolis Center
Mon 01:59:03 PM 40.5708 -85.7847 317° Northwest 448 516 23,100 -952 Descending Chicago Center
Mon 02:00:05 PM 40.6436 -85.9114 307° West 437 503 22,000 -537 Descending Chicago Center
Mon 02:01:06 PM 40.7150 -86.0364 307° West 431 496 22,000  Level Chicago Center
Mon 02:02:08 PM 40.7867 -86.1617 307° West 428 493 22,000  Level Chicago Center
Mon 02:03:10 PM 40.8581 -86.2869 307° West 428 493 22,000  Level Chicago Center
Mon 02:04:12 PM 40.9297 -86.4139 307° West 428 493 22,000 -919 Level Chicago Center
Mon 02:05:14 PM 41.0144 -86.5639 307° West 425 489 20,100 -1,887 Descending Chicago Center
Mon 02:06:16 PM 41.0825 -86.6869 306° West 418 481 18,100 -1,756 Descending Chicago Center
Mon 02:07:17 PM 41.1486 -86.8033 307° West 413 475 16,500 -1,756 Descending Chicago Center
Mon 02:08:19 PM 41.2156 -86.9211 307° West 404 465 14,500 -1,935 Descending Chicago Center
Mon 02:09:21 PM 41.2794 -87.0394 306° West 396 456 12,500 -1,694 Descending Chicago Center
Mon 02:10:23 PM 41.3561 -87.1772 307° West 391 450 11,000 -724 Descending Chicago Center
Mon 02:11:17 PM 41.4167 -87.2667 312° West 351 404 11,100 -368 Climbing Chicago TRACON
Mon 02:12:17 PM 41.5000 -87.3500 323° Northwest 342 394 10,300 -545 Descending Chicago TRACON
Mon 02:13:18 PM 41.5667 -87.4333 317° Northwest 345 397 10,000 -149 Descending Chicago TRACON
Mon 02:14:18 PM 41.6333 -87.5167 317° Northwest 344 396 10,000  Level Chicago TRACON
Mon 02:15:18 PM 41.7167 -87.5833 329° Northwest 342 394 10,000 -400 Level Chicago TRACON
Mon 02:16:18 PM 41.8000 -87.6333 336° Northwest 293 337 9,200 -1,050 Descending Chicago TRACON
Mon 02:17:18 PM 41.8667 -87.7000 323° Northwest 289 333 7,900 -1,050 Descending Chicago TRACON
Mon 02:18:18 PM 41.9333 -87.7333 340° North 265 305 7,100 -500 Descending Chicago TRACON
Mon 02:19:18 PM 42.0000 -87.7333 360° North 244 281 6,900 -762 Descending Chicago TRACON
Mon 02:20:24 PM 42.0500 -87.6833 37° Northeast 229 264 5,500 -1,190 Descending Chicago TRACON
Mon 02:21:19 PM 42.1000 -87.6667 14° North 241 277 4,500 -1,100 Descending Chicago TRACON
Mon 02:22:24 PM 42.1333 -87.7333 304° West 188 216 3,300 -966 Descending Chicago TRACON
Mon 02:22:46 PM 42.1289 -87.7547 254° West 206 237 3,100 -327 Descending Chicago Center
Mon 02:23:19 PM 42.1000 -87.7833 216° Southwest 170 196 3,000 -364 Descending Chicago TRACON
Mon 02:24:25 PM 42.0667 -87.8167 217° Southwest 167 192 2,500 -667 Descending Chicago TRACON
Mon 02:25:25 PM 42.0333 -87.8667 228° Southwest 142 163 1,600 -789 Descending Chicago TRACON
Mon 02:26:19 PM 42.0000 -87.8833 200° South 136 157 1,000 -667 Descending Chicago TRACON
Mon 02:28:00 PM 41.9817 -87.9067 243° Southwest  Level Estimated

Login

Don't have an account? Register now (free) for customized features, flight alerts, and more!